Météo Nord-Pas-de-Calais   La météo au plus près de chez vous

Station météorologique

Observations météo à Villar D'arene (05181)

05181002 1665 m Dernier relevé à 19:36
13.7°C
Humidité 58 % Vent 2.5 km/h

Journée consultée

Lundi 31 Août 2026

Synthèse de la journée

Périodes de référence en UTC

Température maximale

19.9°C

à 14:00

06h 06h

Température minimale

7.9°C

à 04:12

18h 18h

Rafale maximale

35 km/h

à 13:24

00h 00h

Précipitations

0.6 mm

Cumul quotidien

06h 06h

Graphiques de la journée

Heure locale Réduire

Données détaillées

Relevés météo

Pas de 6 minutes Afficher les relevés infra-horaires
Relevés météo détaillés à Villar D'arene pour le Lundi 31 Août 2026
Heure Température °C Point de rosée °C Humidité % Vent moyen (raf.), km/h Précipitations mm Hauteur neige cm
19:36 13.7 °C 7.5 °C 66 % 3 km/h (8 km/h) 0 mm0 mm 0 cm
19:30 13.9 °C 7.2 °C 64 % 3 km/h (9 km/h) 0 mm0 mm 0 cm
19:24 14.2 °C 7 °C 62 % 3 km/h (10 km/h) 0 mm0 mm 0 cm
19:18 14.2 °C 7 °C 62 % 4 km/h (21 km/h) 0 mm0 mm 0 cm
19:12 14.3 °C 7.3 °C 63 % 3 km/h (21 km/h) 0 mm0 mm 0 cm
19:06 14.4 °C 6.5 °C 59 % 3 km/h (13 km/h) 0 mm0 mm 0 cm
19:00 14.7 °C 8 °C 64 % 4 km/h (12 km/h) 0 mm0 mm 0 cm
18:54 15.1 °C 7.9 °C 62 % 4 km/h (15 km/h) 0 mm0 mm 0 cm
18:48 15.4 °C 7.2 °C 58 % 3 km/h (8 km/h) 0 mm0 mm 0 cm
18:42 15.5 °C 7.5 °C 59 % 3 km/h (12 km/h) 0 mm0 mm 0 cm
18:36 16.1 °C 7.8 °C 58 % 3 km/h (8 km/h) 0 mm0 mm 0 cm
18:30 16.7 °C 6.5 °C 51 % 6 km/h (19 km/h) 0 mm0 mm 0 cm
18:24 16.5 °C 6.6 °C 52 % 8 km/h (19 km/h) 0 mm0 mm 0 cm
18:18 16.5 °C 7.4 °C 55 % 9 km/h (27 km/h) 0 mm0 mm 0 cm
18:12 17.1 °C 6.6 °C 50 % 7 km/h (27 km/h) 0 mm0 mm 0 cm
18:06 17.2 °C 6.7 °C 50 % 6 km/h (28 km/h) 0 mm0 mm 0 cm
18:00 17.4 °C 6.6 °C 49 % 9 km/h (28 km/h) 0 mm0 mm 0 cm
17:54 18.2 °C 7.9 °C 51 % 6 km/h (15 km/h) 0 mm0 mm 0 cm
17:48 19.4 °C 8.1 °C 48 % 5 km/h (18 km/h) 0 mm0 mm 0 cm
17:42 19.5 °C 7.9 °C 47 % 7 km/h (22 km/h) 0 mm0 mm 0 cm
17:36 18.8 °C 8.4 °C 51 % 5 km/h (22 km/h) 0 mm0 mm 0 cm
17:30 18 °C 9.1 °C 56 % 5 km/h (16 km/h) 0 mm0 mm 0 cm
17:24 18.1 °C 7.2 °C 49 % 5 km/h (15 km/h) 0 mm0 mm 0 cm
17:18 18.4 °C 7.2 °C 48 % 7 km/h (24 km/h) 0 mm0 mm 0 cm
17:12 17.9 °C 7 °C 49 % 6 km/h (24 km/h) 0 mm0 mm 0 cm
17:06 18 °C 8.3 °C 53 % 7 km/h (18 km/h) 0 mm0 mm 0 cm
17:00 17.7 °C 7.7 °C 52 % 9 km/h (28 km/h) 0 mm0 mm 0 cm
16:54 17.8 °C 7.5 °C 51 % 8 km/h (30 km/h) 0 mm0 mm 0 cm
16:48 17.8 °C 8.1 °C 53 % 9 km/h (30 km/h) 0 mm0 mm 0 cm
16:42 17.8 °C 7.5 °C 51 % 10 km/h (24 km/h) 0 mm0 mm 0 cm
16:36 17.7 °C 8.3 °C 54 % 11 km/h (28 km/h) 0 mm0 mm 0 cm
16:30 17.7 °C 8 °C 53 % 9 km/h (28 km/h) 0 mm0 mm 0 cm
16:24 17.8 °C 8.4 °C 54 % 8 km/h (21 km/h) 0 mm0 mm 0 cm
16:18 17.9 °C 8.5 °C 54 % 8 km/h (22 km/h) 0 mm0 mm 0 cm
16:12 17.9 °C 9 °C 56 % 9 km/h (24 km/h) 0 mm0 mm 0 cm
16:06 17.9 °C 9 °C 56 % 12 km/h (29 km/h) 0 mm0 mm 0 cm
16:00 18 °C 8.3 °C 53 % 12 km/h (26 km/h) 0 mm0 mm 0 cm
15:54 18.2 °C 8.5 °C 53 % 10 km/h (27 km/h) 0 mm0 mm 0 cm
15:48 18 °C 8.5 °C 54 % 10 km/h (27 km/h) 0 mm0 mm 0 cm
15:42 18.1 °C 9.2 °C 56 % 5 km/h (21 km/h) 0 mm0 mm 0 cm
15:36 18.1 °C 8.4 °C 53 % 8 km/h (23 km/h) 0 mm0 mm 0 cm
15:30 18.1 °C 8.4 °C 53 % 10 km/h (23 km/h) 0 mm0 mm 0 cm
15:24 18.2 °C 7.9 °C 51 % 10 km/h (26 km/h) 0 mm0 mm 0 cm
15:18 18.2 °C 7.6 °C 50 % 12 km/h (26 km/h) 0 mm0 mm 0 cm
15:12 18.2 °C 8.2 °C 52 % 9 km/h (23 km/h) 0 mm0 mm 0 cm
15:06 18.2 °C 8.2 °C 52 % 12 km/h (27 km/h) 0 mm0 mm 0 cm
15:00 18.2 °C 7.3 °C 49 % 12 km/h (30 km/h) 0 mm0 mm 0 cm
14:54 18.2 °C 7.3 °C 49 % 11 km/h (30 km/h) 0 mm0 mm 0 cm
14:48 18.3 °C 8.8 °C 54 % 13 km/h (31 km/h) 0 mm0 mm 0 cm
14:42 18.8 °C 7.9 °C 49 % 13 km/h (31 km/h) 0 mm0 mm 0 cm
14:36 19.1 °C 7.8 °C 48 % 12 km/h (31 km/h) 0 mm0 mm 0 cm
14:30 19 °C 8 °C 49 % 9 km/h (27 km/h) 0 mm0 mm 0 cm
14:24 18.9 °C 7.9 °C 49 % 10 km/h (27 km/h) 0 mm0 mm 0 cm
14:18 19.3 °C 8.3 °C 49 % 12 km/h (27 km/h) 0 mm0 mm 0 cm
14:12 19.3 °C 8.9 °C 51 % 11 km/h (26 km/h) 0 mm0 mm 0 cm
14:06 19.3 °C 9.5 °C 53 % 12 km/h (29 km/h) 0 mm0 mm 0 cm
14:00 19.4 °C 9 °C 51 % 10 km/h (29 km/h) 0 mm0 mm 0 cm
13:54 18.7 °C 9.5 °C 55 % 9 km/h (22 km/h) 0 mm0 mm 0 cm
13:48 18.2 °C 8.5 °C 53 % 12 km/h (33 km/h) 0 mm0 mm 0 cm
13:42 18.5 °C 7.6 °C 49 % 14 km/h (34 km/h) 0 mm0 mm 0 cm
13:36 19 °C 7.7 °C 48 % 13 km/h (34 km/h) 0 mm0 mm 0 cm
13:30 19.6 °C 8.6 °C 49 % 13 km/h (35 km/h) 0 mm0 mm 0 cm
13:24 19.6 °C 7.7 °C 46 % 14 km/h (35 km/h) 0 mm0 mm 0 cm
13:18 19.7 °C 9.3 °C 51 % 15 km/h (29 km/h) 0 mm0 mm 0 cm
13:12 19.4 °C 9 °C 51 % 15 km/h (28 km/h) 0 mm0 mm 0 cm
13:06 19.7 °C 9 °C 50 % 15 km/h (29 km/h) 0 mm0 mm 0 cm
13:00 19.2 °C 8.2 °C 49 % 16 km/h (31 km/h) 0 mm0 mm 0 cm
12:54 19.3 °C 9.5 °C 53 % 14 km/h (31 km/h) 0 mm0 mm 0 cm
12:48 18.9 °C 9.4 °C 54 % 14 km/h (31 km/h) 0 mm0 mm 0 cm
12:42 18.6 °C 9.1 °C 54 % 12 km/h (30 km/h) 0 mm0 mm 0 cm
12:36 18.4 °C 9.2 °C 55 % 10 km/h (25 km/h) 0 mm0 mm 0 cm
12:30 17.6 °C 9.5 °C 59 % 10 km/h (23 km/h) 0 mm0 mm 0 cm
12:24 17.3 °C 10.4 °C 64 % 10 km/h (23 km/h) 0 mm0 mm 0 cm
12:18 17.1 °C 9.8 °C 62 % 10 km/h (23 km/h) 0 mm0 mm 0 cm
12:12 17.3 °C 9.5 °C 60 % 10 km/h (24 km/h) 0 mm0 mm 0 cm
12:06 17.4 °C 9.6 °C 60 % 11 km/h (28 km/h) 0 mm0 mm 0 cm
12:00 17.3 °C 10.4 °C 64 % 11 km/h (26 km/h) 0 mm0 mm 0 cm
11:54 16.8 °C 9.9 °C 64 % 10 km/h (26 km/h) 0 mm0 mm 0 cm
11:48 16.5 °C 10.6 °C 68 % 11 km/h (24 km/h) 0 mm0 mm 0 cm
11:42 16.8 °C 10.6 °C 67 % 9 km/h (23 km/h) 0 mm0 mm 0 cm
11:36 17.2 °C 10.6 °C 65 % 8 km/h (23 km/h) 0 mm0 mm 0 cm
11:30 17 °C 11.5 °C 70 % 8 km/h (16 km/h) 0 mm0 mm 0 cm
11:24 16.8 °C 11.7 °C 72 % 9 km/h (16 km/h) 0 mm0 mm 0 cm
11:18 16.4 °C 12.2 °C 76 % 7 km/h (16 km/h) 0 mm0 mm 0 cm
11:12 16.1 °C 11.9 °C 76 % 6 km/h (17 km/h) 0 mm0 mm 0 cm
11:06 15.9 °C 12.3 °C 79 % 5 km/h (12 km/h) 0 mm0 mm 0 cm
11:00 16.1 °C 12.1 °C 77 % 3 km/h (9 km/h) 0 mm0 mm 0 cm
10:54 16 °C 12.2 °C 78 % 3 km/h (10 km/h) 0 mm0 mm 0 cm
10:48 15.4 °C 12.2 °C 81 % 5 km/h (13 km/h) 0 mm0 mm 0 cm
10:42 14.5 °C 12.5 °C 88 % 4 km/h (11 km/h) 0 mm0 mm 0 cm
10:36 14.1 °C 12 °C 87 % 3 km/h (8 km/h) 0 mm0 mm 0 cm
10:30 13.6 °C 12.5 °C 93 % 2 km/h (6 km/h) 0 mm0 mm 0 cm
10:24 13.1 °C 11.7 °C 91 % 2 km/h (5 km/h) 0 mm0 mm 0 cm
10:18 12.9 °C 11.8 °C 93 % 0 km/h (4 km/h) 0 mm0 mm 0 cm
10:12 12.8 °C 12.2 °C 96 % 0 km/h (4 km/h) 0 mm0 mm 0 cm
10:06 12.5 °C 11.9 °C 96 % 2 km/h (6 km/h) 0 mm0 mm 0 cm
10:00 12.4 °C 11.8 °C 96 % 3 km/h (7 km/h) 0 mm0.1 mm 0 cm
09:54 12.4 °C 12.1 °C 98 % 4 km/h (7 km/h) 0 mm0 mm 0 cm
09:48 12.2 °C 12 °C 99 % 3 km/h (6 km/h) 0 mm0 mm 0 cm
09:42 12.1 °C 11.9 °C 99 % 0 km/h (4 km/h) 0 mm0 mm 0 cm
09:36 11.9 °C 11.7 °C 99 % 0 km/h (3 km/h) 0 mm0 mm 0 cm
09:30 11.7 °C 11.5 °C 99 % 0 km/h (4 km/h) 0 mm0 mm 0 cm
09:24 11.6 °C 11.4 °C 99 % 2 km/h (5 km/h) 0 mm0 mm 0 cm
09:18 11.4 °C 11.2 °C 99 % 3 km/h (5 km/h) 0 mm0 mm 0 cm
09:12 11.4 °C 11.2 °C 99 % 2 km/h (4 km/h) 0.1 mm0 mm 0 cm
09:06 11.4 °C 11.2 °C 99 % 0 km/h (3 km/h) 0 mm0 mm 0 cm
09:00 11.3 °C 11.3 °C 100 % 2 km/h (6 km/h) 0 mm0.5 mm 0 cm
08:54 11.3 °C 11.3 °C 100 % 4 km/h (6 km/h) 0 mm0 mm 0 cm
08:48 11.3 °C 11.3 °C 100 % 4 km/h (11 km/h) 0 mm0 mm 0 cm
08:42 11.2 °C 11.2 °C 100 % 4 km/h (8 km/h) 0 mm0 mm 0 cm
08:36 11.1 °C 11.1 °C 100 % 3 km/h (10 km/h) 0.2 mm0 mm 0 cm
08:30 11 °C 11 °C 100 % 6 km/h (14 km/h) 0.1 mm0 mm 0 cm
08:24 10.8 °C 10.8 °C 100 % 6 km/h (14 km/h) 0.1 mm0 mm 0 cm
08:18 10.4 °C 10.4 °C 100 % 5 km/h (14 km/h) 0.1 mm0 mm 0 cm
08:12 10 °C 10 °C 100 % 4 km/h (8 km/h) 0 mm0 mm 0 cm
08:06 9.7 °C 9.7 °C 100 % 3 km/h (6 km/h) 0 mm0 mm 0 cm
08:00 9.4 °C 9.4 °C 100 % 0 km/h (4 km/h) 0 mm0 mm 0 cm
07:54 9.1 °C 9.1 °C 100 % 0 km/h (3 km/h) 0 mm0 mm 0 cm
07:48 8.9 °C 8.9 °C 100 % 0 km/h (3 km/h) 0 mm0 mm 0 cm
07:42 8.7 °C 8.6 °C 99 % 0 km/h (3 km/h) 0 mm0 mm 0 cm
07:36 8.5 °C 8.4 °C 99 % 0 km/h (3 km/h) 0 mm0 mm 0 cm
07:30 8.2 °C 7.9 °C 98 % 0 km/h (3 km/h) 0 mm0 mm 0 cm
07:24 8.1 °C 7.8 °C 98 % 0 km/h (2 km/h) 0 mm0 mm 0 cm
07:18 8.1 °C 7.8 °C 98 % 0 km/h (2 km/h) 0 mm0 mm 0 cm
07:12 8.1 °C 7.8 °C 98 % 0 km/h (5 km/h) 0 mm0 mm 0 cm
07:06 8.2 °C 7.9 °C 98 % 0 km/h (5 km/h) 0 mm0 mm 0 cm
07:00 8.1 °C 7.7 °C 97 % 0 km/h (3 km/h) 0 mm0 mm 0 cm
06:54 8.3 °C 7.9 °C 97 % 0 km/h (2 km/h) 0 mm0 mm 0 cm
06:48 8.4 °C 8.1 °C 98 % 0 km/h (4 km/h) 0 mm0 mm 0 cm
06:42 8.5 °C 8.2 °C 98 % 0 km/h (4 km/h) 0 mm0 mm 0 cm
06:36 8.6 °C 8.2 °C 97 % 0 km/h (3 km/h) 0 mm0 mm 0 cm
06:30 8.7 °C 8.4 °C 98 % 0 km/h (3 km/h) 0 mm0 mm 0 cm
06:24 8.8 °C 8.5 °C 98 % 0 km/h (4 km/h) 0 mm0 mm 0 cm
06:18 8.8 °C 8.7 °C 99 % 0 km/h (3 km/h) 0 mm0 mm 0 cm
06:12 9 °C 8.9 °C 99 % 2 km/h (5 km/h) 0 mm0 mm 0 cm
06:06 9.1 °C 9 °C 99 % 2 km/h (5 km/h) 0 mm0 mm 0 cm
06:00 9.2 °C 9.2 °C 100 % 0 km/h (3 km/h) 0 mm0 mm 0 cm
05:54 9 °C 8.9 °C 99 % 2 km/h (4 km/h) 0 mm0 mm 0 cm
05:48 8.9 °C 8.8 °C 99 % 0 km/h (3 km/h) 0 mm0 mm 0 cm
05:42 8.8 °C 8.7 °C 99 % 0 km/h (3 km/h) 0 mm0 mm 0 cm
05:36 8.7 °C 8.6 °C 99 % 0 km/h (3 km/h) 0 mm0 mm 0 cm
05:30 8.6 °C 8.5 °C 99 % 0 km/h (3 km/h) 0 mm0 mm 0 cm
05:24 8.6 °C 8.5 °C 99 % 0 km/h (4 km/h) 0 mm0 mm 0 cm
05:18 8.4 °C 8.3 °C 99 % 2 km/h (4 km/h) 0 mm0 mm 0 cm
05:12 8.3 °C 8.2 °C 99 % 2 km/h (5 km/h) 0 mm0 mm 0 cm
05:06 8.2 °C 8.1 °C 99 % 2 km/h (5 km/h) 0 mm0 mm 0 cm
05:00 8.1 °C 8 °C 99 % 2 km/h (5 km/h) 0 mm0 mm 0 cm
04:54 8 °C 7.9 °C 99 % 2 km/h (5 km/h) 0 mm0 mm 0 cm
04:48 8.1 °C 8 °C 99 % 3 km/h (7 km/h) 0 mm0 mm 0 cm
04:42 8.1 °C 7.8 °C 98 % 3 km/h (7 km/h) 0 mm0 mm 0 cm
04:36 7.9 °C 7.6 °C 98 % 2 km/h (4 km/h) 0 mm0 mm 0 cm
04:30 7.9 °C 7.6 °C 98 % 0 km/h (3 km/h) 0 mm0 mm 0 cm
04:24 7.9 °C 7.6 °C 98 % 0 km/h (3 km/h) 0 mm0 mm 0 cm
04:18 7.9 °C 7.5 °C 97 % 0 km/h (3 km/h) 0 mm0 mm 0 cm
04:12 7.9 °C 7.5 °C 97 % 0 km/h (4 km/h) 0 mm0 mm 0 cm
04:06 8 °C 7.6 °C 97 % 2 km/h (6 km/h) 0 mm0 mm 0 cm
04:00 8.1 °C 7.8 °C 98 % 2 km/h (6 km/h) 0 mm0 mm 0 cm
03:54 8.2 °C 7.9 °C 98 % 0 km/h (4 km/h) 0 mm0 mm 0 cm
03:48 8.2 °C 7.8 °C 97 % 0 km/h (4 km/h) 0 mm0 mm 0 cm
03:42 8.1 °C 7.5 °C 96 % 2 km/h (5 km/h) 0 mm0 mm 0 cm
03:36 8.3 °C 7.7 °C 96 % 2 km/h (5 km/h) 0 mm0 mm 0 cm
03:30 8.4 °C 7.8 °C 96 % 3 km/h (6 km/h) 0 mm0 mm 0 cm
03:24 8.4 °C 7.8 °C 96 % 3 km/h (6 km/h) 0 mm0 mm 0 cm
03:18 8.6 °C 8.2 °C 97 % 2 km/h (4 km/h) 0 mm0 mm 0 cm
03:12 8.7 °C 8.1 °C 96 % 2 km/h (4 km/h) 0 mm0 mm 0 cm
03:06 8.8 °C 8 °C 95 % 0 km/h (4 km/h) 0 mm0 mm 0 cm
03:00 9 °C 8.2 °C 95 % 0 km/h (4 km/h) 0 mm0 mm 0 cm
02:54 9.2 °C 8.6 °C 96 % 2 km/h (5 km/h) 0 mm0 mm 0 cm
02:48 9.4 °C 8.9 °C 97 % 2 km/h (5 km/h) 0 mm0 mm 0 cm
02:42 9.5 °C 9 °C 97 % 0 km/h (4 km/h) 0 mm0 mm 0 cm
02:36 9.5 °C 8.9 °C 96 % 0 km/h (3 km/h) 0 mm0 mm 0 cm
02:30 9.6 °C 9 °C 96 % 2 km/h (4 km/h) 0 mm0 mm 0 cm
02:24 9.7 °C 9.1 °C 96 % 0 km/h (4 km/h) 0 mm0 mm 0 cm
02:18 9.8 °C 9.2 °C 96 % 0 km/h (3 km/h) 0 mm0 mm 0 cm
02:12 9.9 °C 9.3 °C 96 % 0 km/h (4 km/h) 0 mm0 mm 0 cm
02:06 9.9 °C 9.4 °C 97 % 2 km/h (4 km/h) 0 mm0 mm 0 cm
02:00 9.9 °C 9.3 °C 96 % 2 km/h (5 km/h) 0 mm0 mm 0 cm
01:54 10 °C 9.5 °C 97 % 2 km/h (4 km/h) 0 mm0 mm 0 cm
01:48 10 °C 9.4 °C 96 % 2 km/h (4 km/h) 0 mm0 mm 0 cm
01:42 10.1 °C 9.6 °C 97 % 3 km/h (5 km/h) 0 mm0 mm 0 cm
01:36 10.1 °C 9.5 °C 96 % 2 km/h (5 km/h) 0 mm0 mm 0 cm
01:30 10.2 °C 9.6 °C 96 % 0 km/h (3 km/h) 0 mm0 mm 0 cm
01:24 10.2 °C 9.7 °C 97 % 2 km/h (5 km/h) 0 mm0 mm 0 cm
01:18 10.2 °C 9.7 °C 97 % 2 km/h (6 km/h) 0 mm0 mm 0 cm
01:12 10.2 °C 9.7 °C 97 % 2 km/h (4 km/h) 0 mm0 mm 0 cm
01:06 10.2 °C 9.7 °C 97 % 2 km/h (4 km/h) 0 mm0 mm 0 cm
01:00 10.1 °C 9.5 °C 96 % 2 km/h (4 km/h) 0 mm0 mm 0 cm
00:54 10.2 °C 9.6 °C 96 % 2 km/h (5 km/h) 0 mm0 mm 0 cm
00:48 10.3 °C 9.7 °C 96 % 0 km/h (3 km/h) 0 mm0 mm 0 cm
00:42 10.3 °C 9.7 °C 96 % 2 km/h (6 km/h) 0 mm0 mm 0 cm
00:36 10.4 °C 9.9 °C 97 % 2 km/h (6 km/h) 0 mm0 mm 0 cm
00:30 10.4 °C 9.9 °C 97 % 0 km/h (4 km/h) 0 mm0 mm 0 cm
00:24 10.4 °C 9.8 °C 96 % 2 km/h (4 km/h) 0 mm0 mm 0 cm
00:18 10.4 °C 9.9 °C 97 % 0 km/h (4 km/h) 0 mm0 mm 0 cm
00:12 10.4 °C 9.8 °C 96 % 2 km/h (4 km/h) 0 mm0 mm 0 cm
00:06 10.4 °C 9.9 °C 97 % 2 km/h (4 km/h) 0 mm0 mm 0 cm
00:00 10.4 °C 10.1 °C 98 % 3 km/h (5 km/h) 0 mm0 mm 0 cm

Données via Météo-France

Relevés météo à Villar D'arene

Cette page rassemble les observations de la station de Villar D'arene : température, humidité, vent, précipitations et pression atmosphérique. Les graphiques facilitent le suivi de la journée, tandis que le tableau donne accès aux mesures horaires et infra-horaires disponibles.

Pour replacer ces mesures dans leur contexte, consultez la climatologie de Villar D'arene ainsi que ses normales et records. Retrouvez aussi la carte des observations météo en temps réel.